Time;durP1;ratioP1;P1;durP2;ratioP2;P2;SDS_P1;SDS_P2;PMS_P1;PMS_P2;Temp;Humidity;BMP_temperature;BMP_pressure;BME280_temperature;BME280_humidity;BME280_pressure;Samples;Min_cycle;Max_cycle;Signal;HPM_P1;HPM_P2
2021/09/19 00:01:59;;;;;;;6.53;4.13;;;14.70;99.90;;;;;;5014119;28;20459;-49
2021/09/19 00:04:25;;;;;;;4.87;4.03;;;14.70;99.90;;;;;;5013812;28;20495;-51
2021/09/19 00:06:54;;;;;;;6.00;3.70;;;14.70;99.90;;;;;;5013216;28;20527;-49
2021/09/19 00:09:21;;;;;;;5.20;4.03;;;14.70;99.90;;;;;;5012597;28;20872;-50
2021/09/19 00:11:48;;;;;;;5.17;4.13;;;14.70;99.90;;;;;;5014149;28;20551;-50
2021/09/19 00:14:18;;;;;;;6.17;4.13;;;14.70;99.90;;;;;;5014357;28;20437;-50
2021/09/19 00:16:48;;;;;;;5.07;3.90;;;14.60;99.90;;;;;;5013961;28;20891;-49
2021/09/19 00:19:15;;;;;;;7.40;3.77;;;14.70;99.90;;;;;;5013651;28;20453;-49
2021/09/19 00:21:42;;;;;;;4.47;3.90;;;14.60;99.90;;;;;;5013842;28;20443;-49
2021/09/19 00:24:09;;;;;;;6.10;4.30;;;14.60;99.90;;;;;;5013925;28;20523;-49
2021/09/19 00:26:36;;;;;;;5.37;3.90;;;14.50;99.90;;;;;;5013919;28;20542;-49
2021/09/19 00:29:03;;;;;;;6.23;3.70;;;14.50;99.90;;;;;;5013362;28;20999;-49
2021/09/19 00:31:29;;;;;;;5.23;4.00;;;14.50;99.90;;;;;;5013586;28;20436;-50
2021/09/19 00:33:58;;;;;;;5.73;3.93;;;14.50;99.90;;;;;;5013823;28;20443;-49
2021/09/19 00:36:24;;;;;;;8.27;4.20;;;14.50;99.90;;;;;;5013662;28;20479;-50
2021/09/19 00:38:51;;;;;;;5.77;4.53;;;14.50;99.90;;;;;;5013228;28;20428;-49
2021/09/19 00:41:18;;;;;;;4.60;3.87;;;14.50;99.90;;;;;;5019769;28;20463;-49
2021/09/19 00:43:44;;;;;;;5.27;3.63;;;14.50;99.90;;;;;;5014668;28;21012;-49
2021/09/19 00:46:13;;;;;;;7.90;4.97;;;14.50;99.90;;;;;;5013504;28;20428;-49
2021/09/19 00:48:40;;;;;;;5.17;4.07;;;14.50;99.90;;;;;;5013212;28;20519;-48
2021/09/19 00:51:10;;;;;;;7.00;4.37;;;14.50;99.90;;;;;;5013647;28;20483;-50
2021/09/19 00:53:38;;;;;;;6.27;3.90;;;14.50;99.90;;;;;;5011993;28;20452;-50
2021/09/19 00:56:08;;;;;;;5.70;4.73;;;14.50;99.90;;;;;;5011915;28;20467;-49
2021/09/19 00:58:35;;;;;;;6.20;4.60;;;14.50;99.90;;;;;;5013168;28;20533;-49
2021/09/19 01:01:03;;;;;;;7.47;4.40;;;14.40;99.90;;;;;;5013250;28;20557;-49
2021/09/19 01:03:30;;;;;;;6.13;4.13;;;14.40;99.90;;;;;;5013208;28;20524;-49
2021/09/19 01:05:57;;;;;;;5.57;4.13;;;14.40;99.90;;;;;;5013250;28;20988;-50
2021/09/19 01:08:26;;;;;;;6.00;4.33;;;14.50;99.90;;;;;;5013144;28;20482;-49
2021/09/19 01:10:53;;;;;;;7.60;4.00;;;14.50;99.90;;;;;;5011618;28;20475;-49
2021/09/19 01:13:20;;;;;;;6.97;4.60;;;14.40;99.90;;;;;;5012996;28;20434;-49
2021/09/19 01:15:48;;;;;;;5.47;4.30;;;14.40;99.90;;;;;;5012129;28;20499;-49
2021/09/19 01:18:17;;;;;;;5.80;4.60;;;14.40;99.90;;;;;;5012112;28;20531;-50
2021/09/19 01:20:45;;;;;;;7.90;4.23;;;14.40;99.90;;;;;;5012914;28;20976;-49
2021/09/19 01:23:13;;;;;;;9.07;4.77;;;14.40;99.90;;;;;;5012911;28;20429;-49
2021/09/19 01:25:44;;;;;;;5.30;4.03;;;14.40;99.90;;;;;;5011765;28;20558;-49
2021/09/19 01:28:13;;;;;;;7.07;4.40;;;14.40;99.90;;;;;;5012618;28;20425;-49
2021/09/19 01:30:40;;;;;;;4.63;3.63;;;14.40;99.90;;;;;;5012716;28;20536;-49
2021/09/19 01:33:07;;;;;;;4.63;3.70;;;14.40;99.90;;;;;;5012366;28;20471;-49
2021/09/19 01:35:34;;;;;;;9.07;4.67;;;14.40;99.90;;;;;;5012718;28;20748;-49
2021/09/19 01:38:04;;;;;;;7.30;4.33;;;14.40;99.90;;;;;;5012426;28;20439;-49
2021/09/19 01:40:30;;;;;;;6.60;4.53;;;14.40;99.90;;;;;;5012610;28;20972;-49
2021/09/19 01:42:59;;;;;;;13.00;4.20;;;14.40;99.90;;;;;;5012565;28;20421;-50
2021/09/19 01:45:26;;;;;;;6.50;4.60;;;14.50;99.90;;;;;;5012442;28;20472;-49
2021/09/19 01:47:56;;;;;;;11.80;4.50;;;14.40;99.90;;;;;;5012074;28;20898;-49
2021/09/19 01:50:24;;;;;;;4.70;4.00;;;14.20;99.90;;;;;;5012408;28;20547;-49
2021/09/19 01:52:52;;;;;;;8.57;4.40;;;14.40;99.90;;;;;;5012629;28;20731;-50
2021/09/19 01:55:19;;;;;;;6.50;4.00;;;14.40;99.90;;;;;;5012537;28;20941;-50
2021/09/19 01:57:46;;;;;;;5.37;4.33;;;14.40;99.90;;;;;;5011965;28;20575;-50
2021/09/19 02:00:15;;;;;;;5.90;4.20;;;14.40;99.90;;;;;;5018727;28;20468;-50
2021/09/19 02:02:41;;;;;;;8.07;5.30;;;14.60;99.90;;;;;;5012251;28;20518;-49
2021/09/19 02:05:11;;;;;;;7.67;4.40;;;14.40;99.90;;;;;;5012208;28;20437;-49
2021/09/19 02:07:39;;;;;;;4.63;4.13;;;14.40;99.90;;;;;;5011966;28;20440;-49
2021/09/19 02:10:09;;;;;;;4.97;3.77;;;14.40;99.90;;;;;;5012188;28;20448;-49
2021/09/19 02:12:36;;;;;;;10.70;4.40;;;14.40;99.90;;;;;;5012690;28;20790;-49
2021/09/19 02:15:03;;;;;;;8.20;4.53;;;14.30;99.90;;;;;;5012189;28;20490;-49
2021/09/19 02:17:32;;;;;;;8.00;4.57;;;14.30;99.90;;;;;;5012084;28;21016;-50
2021/09/19 02:19:58;;;;;;;5.40;4.20;;;14.30;99.90;;;;;;5011772;28;20887;-49
2021/09/19 02:22:25;;;;;;;7.33;4.40;;;14.30;99.90;;;;;;5010938;28;20541;-49
2021/09/19 02:24:52;;;;;;;5.53;4.80;;;14.30;99.90;;;;;;5012113;28;20949;-49
2021/09/19 02:27:21;;;;;;;7.83;4.60;;;14.20;99.90;;;;;;5011827;28;20844;-49
2021/09/19 02:29:48;;;;;;;5.07;4.10;;;14.20;99.90;;;;;;5011620;28;20521;-49
2021/09/19 02:32:15;;;;;;;9.70;4.30;;;14.60;99.90;;;;;;5010466;28;20454;-49
2021/09/19 02:34:43;;;;;;;5.20;4.50;;;14.20;99.90;;;;;;5010613;28;20459;-49
2021/09/19 02:37:10;;;;;;;4.57;4.17;;;14.20;99.90;;;;;;5011801;28;20479;-49
2021/09/19 02:39:39;;;;;;;6.30;4.40;;;14.40;99.90;;;;;;5011560;28;20455;-49
2021/09/19 02:42:08;;;;;;;4.63;3.63;;;14.20;99.90;;;;;;5012164;28;20470;-49
2021/09/19 02:44:35;;;;;;;7.83;4.60;;;14.20;99.90;;;;;;5011809;28;20467;-49
2021/09/19 02:47:02;;;;;;;4.77;4.27;;;13.90;99.90;;;;;;5011870;28;20530;-49
2021/09/19 02:49:28;;;;;;;5.80;4.57;;;14.20;99.90;;;;;;5011276;28;20984;-49
2021/09/19 02:51:57;;;;;;;5.33;4.00;;;14.20;99.90;;;;;;5011796;28;20807;-50
2021/09/19 02:54:26;;;;;;;4.77;4.10;;;14.20;99.90;;;;;;5011736;28;20438;-50
2021/09/19 02:56:53;;;;;;;4.83;4.37;;;14.00;99.90;;;;;;5010360;28;20569;-49
2021/09/19 02:59:20;;;;;;;4.83;4.03;;;14.20;99.90;;;;;;5011370;28;20852;-50
2021/09/19 03:01:47;;;;;;;8.33;4.90;;;14.20;99.90;;;;;;5011603;28;20471;-50
2021/09/19 03:04:13;;;;;;;19.57;4.73;;;14.20;99.90;;;;;;5010365;28;20534;-50
2021/09/19 03:06:40;;;;;;;8.20;4.20;;;14.20;99.90;;;;;;5011698;28;20439;-49
2021/09/19 03:09:08;;;;;;;4.30;3.83;;;14.20;99.90;;;;;;5011379;28;20939;-49
2021/09/19 03:11:35;;;;;;;7.57;4.47;;;14.20;99.90;;;;;;5010455;28;20494;-49
2021/09/19 03:14:02;;;;;;;7.50;3.97;;;14.20;99.90;;;;;;5010511;28;20457;-50
2021/09/19 03:16:28;;;;;;;5.30;3.90;;;14.20;99.90;;;;;;5011523;28;20494;-49
2021/09/19 03:18:55;;;;;;;4.40;4.00;;;14.20;99.90;;;;;;5018853;28;20455;-50
2021/09/19 03:21:22;;;;;;;6.37;4.73;;;14.10;99.90;;;;;;5010259;28;20922;-49
2021/09/19 03:23:51;;;;;;;7.00;4.43;;;14.10;99.90;;;;;;5011877;28;20456;-49
2021/09/19 03:26:19;;;;;;;4.80;4.20;;;14.10;99.90;;;;;;5011625;28;20470;-49
2021/09/19 03:28:46;;;;;;;7.73;4.83;;;13.90;99.90;;;;;;5011212;28;20428;-50
2021/09/19 03:31:13;;;;;;;5.30;4.20;;;14.10;99.90;;;;;;5011397;28;20556;-49
2021/09/19 03:33:40;;;;;;;5.07;4.17;;;14.50;99.90;;;;;;5011176;28;20471;-49
2021/09/19 03:36:07;;;;;;;6.30;4.37;;;14.30;99.90;;;;;;5011401;28;20446;-49
2021/09/19 03:38:34;;;;;;;9.43;4.53;;;14.20;99.90;;;;;;5010957;28;20480;-49
2021/09/19 03:41:01;;;;;;;7.67;4.57;;;14.10;99.90;;;;;;5014808;28;20538;-49
2021/09/19 03:43:29;;;;;;;6.03;4.17;;;14.10;99.90;;;;;;5014829;28;20442;-49
2021/09/19 03:45:55;;;;;;;4.73;4.30;;;14.10;99.90;;;;;;5014802;28;20432;-49
2021/09/19 03:48:22;;;;;;;12.93;4.43;;;14.10;99.90;;;;;;5014372;28;20539;-50
2021/09/19 03:50:49;;;;;;;6.53;5.03;;;14.10;99.90;;;;;;5014599;28;21059;-50
2021/09/19 03:53:16;;;;;;;7.93;4.77;;;14.30;99.90;;;;;;5014723;28;20443;-50
2021/09/19 03:55:42;;;;;;;6.53;3.70;;;14.00;99.90;;;;;;5014669;28;20432;-50
2021/09/19 03:58:09;;;;;;;4.70;4.30;;;14.00;99.90;;;;;;5014254;28;20761;-50
2021/09/19 04:00:37;;;;;;;7.20;4.40;;;14.00;99.90;;;;;;5014878;28;20476;-49
2021/09/19 04:03:04;;;;;;;5.90;4.20;;;13.90;99.90;;;;;;5014263;28;20434;-49
2021/09/19 04:05:31;;;;;;;7.47;4.70;;;13.90;99.90;;;;;;5014512;28;20998;-50
2021/09/19 04:08:00;;;;;;;4.03;3.63;;;13.90;99.90;;;;;;5014115;28;20442;-50
2021/09/19 04:10:29;;;;;;;4.13;3.77;;;13.90;99.90;;;;;;5014486;28;20535;-49
2021/09/19 04:12:58;;;;;;;5.07;4.63;;;13.90;99.90;;;;;;5014436;28;20496;-50
2021/09/19 04:15:27;;;;;;;7.23;4.30;;;14.00;99.90;;;;;;5012944;28;20444;-49
2021/09/19 04:17:58;;;;;;;6.43;4.63;;;13.90;99.90;;;;;;5013949;28;20480;-50
2021/09/19 04:20:25;;;;;;;13.03;5.43;;;13.90;99.90;;;;;;5014059;28;20898;-50
2021/09/19 04:22:52;;;;;;;7.37;5.17;;;14.10;99.90;;;;;;5014287;28;20487;-49
2021/09/19 04:25:18;;;;;;;7.97;4.97;;;13.90;99.90;;;;;;5012648;28;20886;-49
2021/09/19 04:27:48;;;;;;;4.67;3.90;;;14.00;99.90;;;;;;5013636;28;20439;-49
2021/09/19 04:30:15;;;;;;;7.50;4.63;;;13.90;99.90;;;;;;5013901;28;20460;-49
2021/09/19 04:32:42;;;;;;;4.73;4.23;;;13.90;99.90;;;;;;5013924;28;20521;-49
2021/09/19 04:35:10;;;;;;;8.53;4.30;;;14.00;99.90;;;;;;5013943;28;20439;-49
2021/09/19 04:37:37;;;;;;;4.40;3.77;;;14.00;99.90;;;;;;5022256;28;20494;-49
2021/09/19 04:40:05;;;;;;;6.43;4.43;;;14.00;99.90;;;;;;5013638;28;20452;-49
2021/09/19 04:42:32;;;;;;;9.20;4.87;;;13.90;99.90;;;;;;5013691;28;20530;-49
2021/09/19 04:44:59;;;;;;;5.17;4.53;;;13.60;99.90;;;;;;5013678;28;20424;-49
2021/09/19 04:47:25;;;;;;;6.27;4.80;;;14.10;99.90;;;;;;5013645;28;20464;-49
2021/09/19 04:49:53;;;;;;;6.97;5.40;;;14.10;99.90;;;;;;5013073;28;20554;-49
2021/09/19 04:52:21;;;;;;;5.67;5.07;;;14.00;99.90;;;;;;5013636;28;20438;-49
2021/09/19 04:54:47;;;;;;;8.40;4.93;;;13.90;99.90;;;;;;5013517;28;20446;-49
2021/09/19 04:57:14;;;;;;;7.07;4.50;;;14.00;99.90;;;;;;5013269;28;20865;-49
2021/09/19 04:59:41;;;;;;;5.63;4.90;;;13.90;99.90;;;;;;5012942;28;20531;-49
2021/09/19 05:02:08;;;;;;;5.63;4.27;;;13.90;99.90;;;;;;5012158;28;20551;-49
2021/09/19 05:04:34;;;;;;;9.37;4.80;;;13.90;99.90;;;;;;5013355;28;20442;-49
2021/09/19 05:07:01;;;;;;;10.93;5.80;;;13.90;99.90;;;;;;5013224;28;20436;-49
2021/09/19 05:09:29;;;;;;;6.50;4.73;;;13.90;99.90;;;;;;5012819;28;20455;-50
2021/09/19 05:11:56;;;;;;;5.57;4.80;;;13.90;99.90;;;;;;5011941;28;20491;-49
2021/09/19 05:14:22;;;;;;;7.40;5.50;;;14.00;99.90;;;;;;5013205;28;20452;-49
2021/09/19 05:16:49;;;;;;;9.60;4.73;;;13.90;99.90;;;;;;5012795;28;20530;-49
2021/09/19 05:19:16;;;;;;;5.60;4.80;;;14.00;99.90;;;;;;5011331;28;20559;-49
2021/09/19 05:21:42;;;;;;;5.13;4.23;;;13.80;99.90;;;;;;5011700;28;20894;-50
2021/09/19 05:24:12;;;;;;;6.47;5.30;;;14.00;99.90;;;;;;5012937;28;20502;-49
2021/09/19 05:26:40;;;;;;;8.77;5.30;;;14.00;99.90;;;;;;5012829;28;20437;-49
2021/09/19 05:29:06;;;;;;;8.93;5.40;;;14.00;99.90;;;;;;5012468;28;20429;-49
2021/09/19 05:31:33;;;;;;;7.23;5.50;;;13.90;99.90;;;;;;5012800;28;20461;-49
2021/09/19 05:34:01;;;;;;;5.63;4.97;;;14.00;99.90;;;;;;5011427;28;20450;-49
2021/09/19 05:36:28;;;;;;;5.77;4.60;;;14.00;99.90;;;;;;5012758;28;20507;-49
2021/09/19 05:38:55;;;;;;;7.93;4.93;;;14.00;99.90;;;;;;5012200;28;20623;-49
2021/09/19 05:41:21;;;;;;;7.27;5.43;;;14.00;99.90;;;;;;5012539;28;20489;-49
2021/09/19 05:43:49;;;;;;;6.07;4.80;;;13.90;99.90;;;;;;5012640;28;20571;-49
2021/09/19 05:46:17;;;;;;;6.80;5.77;;;13.80;99.90;;;;;;5012725;28;20527;-50
2021/09/19 05:48:44;;;;;;;8.30;5.47;;;13.90;99.90;;;;;;5012342;28;20432;-49
2021/09/19 05:51:11;;;;;;;6.20;5.00;;;14.10;99.90;;;;;;5012114;28;20846;-49
2021/09/19 05:53:38;;;;;;;8.67;5.97;;;14.30;99.90;;;;;;5012465;28;20443;-49
2021/09/19 05:56:05;;;;;;;6.17;4.63;;;14.00;99.90;;;;;;5018223;28;20491;-49
2021/09/19 05:58:32;;;;;;;6.23;4.97;;;14.00;99.90;;;;;;5010658;28;20475;-49
2021/09/19 06:01:00;;;;;;;6.80;5.07;;;14.30;99.90;;;;;;5012292;28;20488;-49
2021/09/19 06:03:27;;;;;;;7.27;5.20;;;13.60;99.90;;;;;;5010518;28;20460;-49
2021/09/19 06:05:53;;;;;;;7.30;5.40;;;14.10;99.90;;;;;;5012067;28;20820;-49
2021/09/19 06:08:20;;;;;;;8.77;5.80;;;14.20;99.90;;;;;;5010277;28;20444;-49
2021/09/19 06:10:47;;;;;;;6.43;5.13;;;14.20;99.90;;;;;;5010534;28;20473;-49
2021/09/19 06:13:13;;;;;;;8.67;4.90;;;14.10;99.90;;;;;;5010756;28;20630;-49
2021/09/19 06:15:40;;;;;;;6.80;4.80;;;14.10;99.90;;;;;;5011926;28;20462;-49
2021/09/19 06:18:08;;;;;;;6.80;5.13;;;14.10;99.90;;;;;;5011615;28;20492;-49
2021/09/19 06:20:35;;;;;;;9.47;5.30;;;14.10;99.90;;;;;;5011865;28;20831;-49
2021/09/19 06:23:04;;;;;;;6.53;5.33;;;14.20;99.90;;;;;;5012033;28;20451;-49
2021/09/19 06:25:31;;;;;;;7.83;5.30;;;14.20;99.90;;;;;;5012078;28;20516;-49
2021/09/19 06:27:58;;;;;;;8.27;5.40;;;14.20;99.90;;;;;;5011652;28;20963;-49
2021/09/19 06:30:26;;;;;;;5.57;4.70;;;14.20;99.90;;;;;;5011840;28;20460;-49
2021/09/19 06:32:55;;;;;;;7.17;5.30;;;14.20;99.90;;;;;;5011832;28;20431;-49
2021/09/19 06:35:26;;;;;;;6.83;4.70;;;14.60;99.90;;;;;;5011921;28;20472;-50
2021/09/19 06:37:53;;;;;;;11.70;5.10;;;14.20;99.90;;;;;;5011314;28;20488;-49
2021/09/19 06:40:22;;;;;;;6.07;4.93;;;14.20;99.90;;;;;;5011836;28;20477;-49
2021/09/19 06:42:49;;;;;;;5.73;5.03;;;14.20;99.90;;;;;;5011766;28;20554;-49
2021/09/19 06:45:18;;;;;;;10.30;4.97;;;14.20;99.90;;;;;;5011801;28;20796;-49
2021/09/19 06:47:46;;;;;;;6.50;4.60;;;14.20;99.90;;;;;;5011212;28;20438;-50
2021/09/19 06:50:14;;;;;;;5.73;4.47;;;14.20;99.90;;;;;;5010721;28;20514;-48
2021/09/19 06:52:43;;;;;;;10.17;6.10;;;14.20;99.90;;;;;;5011382;28;20529;-48
2021/09/19 06:55:10;;;;;;;6.23;5.10;;;14.20;99.90;;;;;;5011381;28;20529;-48
2021/09/19 06:57:37;;;;;;;5.23;4.50;;;14.30;99.90;;;;;;5009958;28;20471;-47
2021/09/19 07:00:06;;;;;;;5.63;5.07;;;14.60;99.90;;;;;;5011506;28;20479;-48
2021/09/19 07:02:33;;;;;;;6.53;4.87;;;14.30;99.90;;;;;;5011655;28;20467;-48
2021/09/19 07:04:59;;;;;;;10.20;5.20;;;14.00;99.90;;;;;;5011552;28;20441;-47
2021/09/19 07:07:29;;;;;;;5.70;4.50;;;14.40;99.90;;;;;;5011809;28;20462;-48
2021/09/19 07:09:57;;;;;;;7.13;5.83;;;14.40;99.90;;;;;;5011076;28;20550;-48
2021/09/19 07:12:23;;;;;;;6.80;5.23;;;14.50;99.90;;;;;;5011546;28;20452;-48
2021/09/19 07:14:50;;;;;;;11.00;6.57;;;14.70;99.90;;;;;;5018967;28;20444;-48
2021/09/19 07:17:17;;;;;;;8.53;5.23;;;14.50;99.90;;;;;;5016894;28;20541;-48
2021/09/19 07:19:43;;;;;;;7.27;5.23;;;14.50;99.90;;;;;;5014633;28;20555;-48
2021/09/19 07:22:10;;;;;;;7.17;4.93;;;14.50;99.90;;;;;;5014868;28;20440;-49
2021/09/19 07:24:39;;;;;;;6.43;5.40;;;14.60;99.90;;;;;;5015229;28;20567;-48
2021/09/19 07:27:08;;;;;;;8.43;5.67;;;14.60;99.90;;;;;;5014922;28;20537;-47
2021/09/19 07:29:36;;;;;;;13.70;5.53;;;14.60;99.90;;;;;;5014275;28;20476;-47
2021/09/19 07:32:07;;;;;;;13.57;5.27;;;14.60;99.90;;;;;;5014713;28;20444;-48
2021/09/19 07:34:34;;;;;;;7.40;4.93;;;14.60;99.90;;;;;;5014855;28;21037;-47
2021/09/19 07:37:02;;;;;;;7.63;4.80;;;14.60;99.90;;;;;;5013658;28;20481;-47
2021/09/19 07:39:30;;;;;;;7.03;4.90;;;14.70;99.90;;;;;;5013907;28;20587;-47
2021/09/19 07:41:57;;;;;;;7.80;5.00;;;14.70;99.90;;;;;;5014532;28;20429;-48
2021/09/19 07:44:25;;;;;;;7.40;5.10;;;14.80;99.90;;;;;;5014333;28;20535;-47
2021/09/19 07:46:53;;;;;;;6.67;4.67;;;14.80;99.90;;;;;;5014601;28;20459;-47
2021/09/19 07:49:21;;;;;;;6.90;4.87;;;14.90;99.90;;;;;;5014085;28;20458;-48
2021/09/19 07:51:48;;;;;;;6.27;5.30;;;15.00;99.90;;;;;;5014391;28;20434;-48
2021/09/19 07:54:18;;;;;;;15.50;4.80;;;15.10;99.90;;;;;;5013147;28;20604;-48
2021/09/19 07:56:47;;;;;;;6.53;4.50;;;15.10;99.90;;;;;;5012989;28;20540;-48
2021/09/19 07:59:16;;;;;;;5.20;4.40;;;15.20;99.90;;;;;;5013863;28;20567;-47
2021/09/19 08:01:44;;;;;;;8.80;4.27;;;15.30;99.90;;;;;;5012877;28;20458;-48
2021/09/19 08:04:11;;;;;;;6.53;5.23;;;15.40;99.90;;;;;;5014282;28;21044;-49
2021/09/19 08:06:38;;;;;;;5.60;4.67;;;15.50;99.90;;;;;;5014167;28;20456;-48
2021/09/19 08:09:04;;;;;;;5.23;4.50;;;15.90;99.90;;;;;;5012287;28;21043;-48
2021/09/19 08:11:31;;;;;;;6.03;5.03;;;15.70;99.90;;;;;;5014307;28;20407;-49
2021/09/19 08:14:05;;;;;;;6.47;4.30;;;15.70;99.90;;;;;;5014218;28;20531;-47
2021/09/19 08:16:32;;;;;;;9.70;4.27;;;15.80;99.90;;;;;;5013768;28;20890;-48
2021/09/19 08:19:00;;;;;;;6.00;4.60;;;15.90;99.90;;;;;;5012071;28;20473;-48
2021/09/19 08:21:27;;;;;;;6.60;4.77;;;15.90;99.90;;;;;;5013357;28;20441;-48
2021/09/19 08:23:54;;;;;;;5.03;4.50;;;16.00;99.90;;;;;;5013864;28;20473;-48
2021/09/19 08:26:20;;;;;;;8.03;4.33;;;16.00;99.90;;;;;;5012028;28;20975;-47
2021/09/19 08:28:47;;;;;;;5.47;4.10;;;16.00;99.90;;;;;;5011922;28;20528;-48
2021/09/19 08:31:14;;;;;;;5.23;4.20;;;16.00;99.90;;;;;;5013865;28;20547;-48
2021/09/19 08:33:40;;;;;;;4.90;3.47;;;16.00;99.90;;;;;;5016099;28;20482;-48
2021/09/19 08:36:11;;;;;;;7.30;4.17;;;16.10;99.90;;;;;;5014952;28;20922;-49
2021/09/19 08:38:38;;;;;;;4.60;4.10;;;16.10;99.90;;;;;;5013388;28;21032;-50
2021/09/19 08:41:04;;;;;;;5.57;4.80;;;16.10;99.90;;;;;;5013703;28;20460;-50
2021/09/19 08:43:31;;;;;;;6.77;4.43;;;16.20;99.90;;;;;;5012287;28;20540;-46
2021/09/19 08:45:58;;;;;;;7.90;4.50;;;16.20;99.90;;;;;;5013413;28;21001;-50
2021/09/19 08:48:25;;;;;;;4.93;4.43;;;16.20;99.90;;;;;;5012950;28;20524;-47
2021/09/19 08:50:54;;;;;;;6.03;4.13;;;16.20;99.90;;;;;;5013464;28;20488;-49
2021/09/19 08:53:24;;;;;;;6.43;4.63;;;16.10;99.90;;;;;;5013338;28;21017;-49
2021/09/19 08:55:50;;;;;;;6.07;4.50;;;16.10;99.90;;;;;;5012891;28;20437;-48
2021/09/19 08:58:17;;;;;;;5.93;4.10;;;16.10;99.90;;;;;;5012810;28;20993;-48
2021/09/19 09:00:48;;;;;;;5.53;3.93;;;16.20;99.90;;;;;;5013199;28;20556;-47
2021/09/19 09:03:16;;;;;;;4.40;3.93;;;16.30;99.90;;;;;;5013027;28;20440;-49
2021/09/19 09:05:43;;;;;;;7.70;3.90;;;16.40;99.90;;;;;;5012835;28;20425;-49
2021/09/19 09:08:11;;;;;;;17.17;4.50;;;16.40;99.60;;;;;;5012504;28;21014;-48
2021/09/19 09:10:42;;;;;;;6.90;4.30;;;16.40;99.60;;;;;;5011615;28;20559;-48
2021/09/19 09:13:11;;;;;;;4.63;4.03;;;16.40;99.10;;;;;;5012521;28;20432;-49
2021/09/19 09:15:41;;;;;;;5.70;5.13;;;16.40;99.20;;;;;;5012751;28;20523;-48
2021/09/19 09:18:08;;;;;;;5.03;4.53;;;16.50;99.40;;;;;;5012066;28;20432;-48
2021/09/19 09:20:51;;;;;;;6.23;4.27;;;16.50;99.30;;;;;;5012749;28;20458;-49
2021/09/19 09:23:26;;;;;;;4.33;3.70;;;16.40;98.80;;;;;;5012478;28;20503;-48
2021/09/19 09:26:14;;;;;;;5.10;4.17;;;16.50;98.20;;;;;;5012843;28;20444;-49
2021/09/19 09:28:44;;;;;;;5.13;3.33;;;16.20;97.10;;;;;;5011756;28;20952;-48
2021/09/19 09:31:11;;;;;;;5.37;4.13;;;16.60;97.40;;;;;;5012587;28;20502;-50
2021/09/19 09:33:38;;;;;;;4.97;3.60;;;16.70;97.20;;;;;;5010972;28;20449;-49
2021/09/19 09:36:09;;;;;;;5.57;4.10;;;16.80;97.40;;;;;;5011941;28;20479;-48
2021/09/19 09:38:38;;;;;;;5.37;4.03;;;16.90;97.30;;;;;;5011725;28;20891;-49
2021/09/19 09:41:05;;;;;;;5.90;3.90;;;16.90;97.10;;;;;;5012228;28;20828;-49
2021/09/19 09:43:33;;;;;;;4.07;3.50;;;17.00;96.80;;;;;;5012573;28;20508;-48
2021/09/19 09:46:12;;;;;;;6.10;4.00;;;17.10;96.70;;;;;;5012135;28;20430;-49
2021/09/19 09:48:41;;;;;;;7.37;3.73;;;17.20;96.70;;;;;;5011886;28;20441;-49
2021/09/19 09:51:21;;;;;;;5.70;4.40;;;17.20;96.20;;;;;;5011189;28;20511;-50
2021/09/19 09:53:58;;;;;;;4.90;4.20;;;17.30;95.50;;;;;;5016017;28;20816;-49
2021/09/19 09:56:26;;;;;;;5.37;4.10;;;17.40;95.40;;;;;;5012385;28;21189;-49
2021/09/19 09:58:55;;;;;;;4.30;3.50;;;17.50;95.30;;;;;;5011461;28;20488;-49
2021/09/19 10:01:22;;;;;;;5.63;3.80;;;17.50;94.80;;;;;;5010917;28;20997;-50
2021/09/19 10:03:50;;;;;;;3.67;3.07;;;17.60;94.50;;;;;;5010905;28;20505;-49
2021/09/19 10:06:17;;;;;;;3.40;3.03;;;17.50;92.90;;;;;;5012286;28;20518;-49
2021/09/19 10:08:44;;;;;;;4.23;2.97;;;17.30;92.70;;;;;;5011775;28;20473;-48
2021/09/19 10:11:13;;;;;;;4.17;3.33;;;17.20;92.40;;;;;;5012315;28;20464;-48
2021/09/19 10:13:44;;;;;;;4.63;3.73;;;17.20;92.40;;;;;;5012286;28;20447;-47
2021/09/19 10:16:17;;;;;;;4.33;3.60;;;17.20;92.20;;;;;;5012322;28;20441;-48
2021/09/19 10:18:47;;;;;;;4.00;3.40;;;17.20;91.70;;;;;;5011907;28;20569;-47
2021/09/19 10:21:16;;;;;;;5.17;4.50;;;17.20;92.00;;;;;;5011946;28;20453;-48
2021/09/19 10:23:44;;;;;;;3.63;3.33;;;17.20;92.00;;;;;;5011737;28;20874;-48
2021/09/19 10:26:12;;;;;;;4.83;3.43;;;17.10;91.60;;;;;;5011531;28;20952;-48
2021/09/19 10:28:40;;;;;;;6.20;4.30;;;17.10;91.50;;;;;;5011841;28;20453;-48
2021/09/19 10:31:33;;;;;;;5.27;2.97;;;17.00;91.50;;;;;;5011649;28;20513;-49
2021/09/19 10:34:04;;;;;;;4.60;3.13;;;17.00;91.50;;;;;;4992510;28;20898;-47
2021/09/19 10:36:38;;;;;;;5.10;3.07;;;17.50;92.10;;;;;;5011107;28;20758;-49
2021/09/19 10:39:17;;;;;;;4.33;3.03;;;17.20;91.70;;;;;;5010818;28;20569;-48
2021/09/19 10:42:07;;;;;;;5.17;3.67;;;17.30;91.30;;;;;;5011564;28;20433;-48
2021/09/19 10:44:34;;;;;;;4.77;3.67;;;17.40;90.70;;;;;;5011810;28;20437;-49
2021/09/19 10:47:06;;;;;;;4.07;3.07;;;17.60;90.70;;;;;;5011114;28;20440;-49
2021/09/19 10:49:35;;;;;;;4.50;3.27;;;17.70;90.00;;;;;;5014396;28;20579;-49
2021/09/19 10:52:08;;;;;;;3.23;2.93;;;17.70;89.20;;;;;;5015608;28;20438;-49
2021/09/19 10:54:47;;;;;;;4.70;3.00;;;17.70;88.30;;;;;;5015527;28;20498;-49
2021/09/19 10:57:15;;;;;;;2.77;2.57;;;17.80;87.70;;;;;;5015442;28;20443;-49
2021/09/19 11:00:14;;;;;;;4.27;3.00;;;17.70;87.80;;;;;;5015203;28;20482;-49
2021/09/19 11:02:59;;;;;;;4.83;3.53;;;17.80;87.60;;;;;;5015450;28;20450;-48
2021/09/19 11:05:27;;;;;;;4.67;3.03;;;17.70;87.90;;;;;;5014965;28;20446;-49
2021/09/19 11:08:16;;;;;;;4.30;2.97;;;17.80;88.40;;;;;;5014865;28;20437;-48
2021/09/19 11:11:12;;;;;;;3.33;3.00;;;17.80;88.20;;;;;;5017566;28;20454;-48
2021/09/19 11:13:46;;;;;;;3.50;3.20;;;17.80;87.80;;;;;;5015261;28;20433;-48
2021/09/19 11:16:25;;;;;;;5.33;3.00;;;17.70;87.60;;;;;;5015981;28;20961;-49
2021/09/19 11:18:56;;;;;;;7.30;3.30;;;17.70;87.80;;;;;;5015407;28;20436;-48
2021/09/19 11:21:31;;;;;;;4.33;2.70;;;17.70;88.10;;;;;;5016028;28;20449;-48
2021/09/19 11:24:01;;;;;;;3.27;2.60;;;17.70;88.00;;;;;;5015479;28;20484;-49
2021/09/19 11:26:30;;;;;;;4.83;2.93;;;17.60;88.50;;;;;;5015109;28;20493;-49
2021/09/19 11:28:58;;;;;;;6.50;4.30;;;17.60;89.20;;;;;;5014167;28;20441;-49
2021/09/19 11:31:25;;;;;;;5.93;3.37;;;17.60;89.70;;;;;;5014682;28;20432;-48
2021/09/19 11:33:53;;;;;;;5.27;3.40;;;17.60;90.00;;;;;;5014901;28;20466;-49
2021/09/19 11:36:22;;;;;;;4.40;3.13;;;17.60;90.40;;;;;;5014745;28;20914;-49
2021/09/19 11:38:51;;;;;;;3.40;3.10;;;17.60;90.10;;;;;;5013956;28;20442;-49
2021/09/19 11:41:20;;;;;;;3.67;3.33;;;17.60;90.10;;;;;;5014376;28;20985;-49
2021/09/19 11:43:48;;;;;;;5.00;2.87;;;17.60;90.30;;;;;;5014420;28;20487;-48
2021/09/19 11:46:18;;;;;;;3.00;2.70;;;17.60;90.10;;;;;;5014682;28;20433;-49
2021/09/19 11:48:45;;;;;;;5.23;3.77;;;17.50;89.10;;;;;;5014765;28;20442;-48
2021/09/19 11:51:16;;;;;;;4.20;3.20;;;17.50;89.40;;;;;;5012439;28;20465;-48
2021/09/19 11:53:44;;;;;;;4.20;3.17;;;17.50;89.70;;;;;;5013605;28;20524;-48
2021/09/19 11:56:10;;;;;;;3.90;2.77;;;17.60;90.00;;;;;;5014163;28;20489;-49
2021/09/19 11:58:37;;;;;;;3.77;2.87;;;17.60;89.70;;;;;;5012530;28;20494;-49
2021/09/19 12:01:05;;;;;;;5.10;3.30;;;17.50;89.40;;;;;;5013351;28;20489;-48
2021/09/19 12:03:32;;;;;;;4.80;3.40;;;17.60;89.10;;;;;;5014187;28;20798;-48
2021/09/19 12:06:00;;;;;;;5.87;3.77;;;17.50;89.90;;;;;;5014194;28;20453;-49
2021/09/19 12:08:30;;;;;;;3.70;3.30;;;17.60;90.00;;;;;;5013836;28;20441;-48
2021/09/19 12:10:58;;;;;;;3.73;3.27;;;17.70;90.10;;;;;;5014212;28;20456;-50
2021/09/19 12:13:27;;;;;;;8.00;3.40;;;17.70;90.20;;;;;;5013319;28;20892;-49
2021/09/19 12:16:02;;;;;;;4.33;2.90;;;17.80;90.30;;;;;;5014027;28;20513;-48
2021/09/19 12:18:31;;;;;;;6.73;3.37;;;17.70;90.00;;;;;;5013164;28;20444;-49
2021/09/19 12:20:59;;;;;;;4.03;3.40;;;17.70;90.20;;;;;;5013415;28;20848;-50
2021/09/19 12:23:26;;;;;;;4.70;3.97;;;17.70;90.10;;;;;;5013966;28;20447;-48
2021/09/19 12:25:54;;;;;;;5.30;3.63;;;17.80;90.30;;;;;;5013743;28;20453;-48
2021/09/19 12:28:28;;;;;;;4.23;3.07;;;17.90;90.30;;;;;;5020011;28;20519;-48
2021/09/19 12:30:55;;;;;;;4.50;3.70;;;18.00;90.20;;;;;;5014421;28;20457;-49
2021/09/19 12:33:22;;;;;;;9.77;5.30;;;17.90;90.00;;;;;;5017035;28;20465;-51
2021/09/19 12:35:49;;;;;;;7.20;3.10;;;17.90;90.00;;;;;;5013363;28;20533;-49
2021/09/19 12:38:17;;;;;;;7.83;3.00;;;17.90;90.00;;;;;;5013017;28;20439;-49
2021/09/19 12:40:44;;;;;;;4.57;3.27;;;17.80;89.10;;;;;;5013185;28;20494;-49
2021/09/19 12:43:13;;;;;;;5.53;3.10;;;17.70;88.90;;;;;;5013147;28;20440;-50
2021/09/19 12:45:49;;;;;;;5.77;3.40;;;17.70;89.00;;;;;;5013550;28;20536;-50
2021/09/19 12:48:22;;;;;;;9.40;3.80;;;17.70;89.10;;;;;;5013419;28;20928;-50
2021/09/19 12:50:55;;;;;;;4.37;3.50;;;17.80;89.50;;;;;;5027015;22;20503;-52
2021/09/19 12:53:24;;;;;;;4.90;2.90;;;17.70;89.00;;;;;;5012163;28;20435;-52